createdAt,value
2018-02-19T00:00:24.277Z,60.58
2018-02-19T00:02:54.649Z,50.20
2018-02-19T00:05:25.035Z,47.80
2018-02-19T00:07:56.079Z,50.25
2018-02-19T00:10:26.407Z,48.30
2018-02-19T00:12:57.418Z,48.35
2018-02-19T00:15:28.205Z,44.45
2018-02-19T00:17:58.758Z,48.05
2018-02-19T00:20:29.196Z,47.42
2018-02-19T00:23:00.410Z,41.97
2018-02-19T00:25:30.850Z,45.40
2018-02-19T00:28:01.674Z,43.22
2018-02-19T00:30:32.379Z,45.28
2018-02-19T00:33:03.211Z,44.20
2018-02-19T00:35:34.080Z,44.42
2018-02-19T00:38:04.542Z,43.33
2018-02-19T00:40:35.219Z,40.20
2018-02-19T00:43:05.657Z,42.47
2018-02-19T00:45:36.299Z,40.78
2018-02-19T00:48:07.143Z,39.97
2018-02-19T00:50:39.630Z,39.72
2018-02-19T00:53:10.041Z,41.90
2018-02-19T00:55:40.488Z,41.83
2018-02-19T00:58:11.012Z,47.95
2018-02-19T01:00:41.501Z,43.63
2018-02-19T01:03:11.959Z,43.55
2018-02-19T01:05:42.667Z,40.90
2018-02-19T01:08:13.099Z,41.40
2018-02-19T01:10:43.613Z,42.83
2018-02-19T01:13:14.458Z,41.20
2018-02-19T01:15:44.874Z,41.67
2018-02-19T01:18:15.418Z,42.28
2018-02-19T01:20:46.225Z,44.42
2018-02-19T01:23:18.023Z,38.47
2018-02-19T01:25:48.541Z,40.08
2018-02-19T01:28:19.562Z,39.22
2018-02-19T01:30:50.480Z,42.13
2018-02-19T01:33:21.755Z,44.38
2018-02-19T01:35:52.613Z,38.92
2018-02-19T01:38:23.408Z,41.17
2018-02-19T01:40:54.075Z,37.03
2018-02-19T01:43:24.780Z,43.63
2018-02-19T01:45:55.136Z,43.45
2018-02-19T01:48:25.672Z,40.43
2018-02-19T01:50:56.148Z,36.13
2018-02-19T01:53:26.845Z,24.37
2018-02-19T01:55:57.634Z,18.83
2018-02-19T01:58:28.326Z,16.62
2018-02-19T02:00:58.793Z,14.80
2018-02-19T02:03:29.849Z,14.40
2018-02-19T02:06:01.519Z,15.60
2018-02-19T02:08:32.238Z,15.90
2018-02-19T02:11:03.903Z,16.43
2018-02-19T02:13:34.426Z,24.20
2018-02-19T02:16:06.263Z,24.63
2018-02-19T02:18:37.239Z,15.35
2018-02-19T02:21:07.573Z,15.90
2018-02-19T02:23:38.073Z,14.20
2018-02-19T02:26:08.633Z,14.43
2018-02-19T02:28:39.039Z,17.17
2018-02-19T02:31:09.364Z,16.40
2018-02-19T02:33:39.991Z,16.33
2018-02-19T02:36:10.871Z,15.98
2018-02-19T02:38:41.857Z,15.98
2018-02-19T02:41:12.611Z,16.30
2018-02-19T02:43:43.458Z,14.02
2018-02-19T02:46:14.683Z,23.75
2018-02-19T02:48:46.039Z,29.95
2018-02-19T02:51:16.767Z,33.20
2018-02-19T02:53:47.597Z,30.55
2018-02-19T02:56:18.335Z,38.50
2018-02-19T02:58:48.944Z,40.22
2018-02-19T03:01:20.141Z,44.45
2018-02-19T03:03:50.975Z,41.92
2018-02-19T03:06:22.184Z,43.95
2018-02-19T03:08:52.751Z,34.85
2018-02-19T03:11:23.532Z,30.87
2018-02-19T04:35:54.436Z,38.33
2018-02-19T04:38:24.539Z,33.58
2018-02-19T04:40:55.060Z,37.25
2018-02-19T04:43:25.877Z,34.27
2018-02-19T04:45:56.081Z,31.83
2018-02-19T04:48:30.835Z,27.92
2018-02-19T04:51:01.086Z,33.85
2018-02-19T04:53:31.409Z,34.95
2018-02-19T04:56:01.911Z,35.40
2018-02-19T04:58:32.311Z,35.47
2018-02-19T05:01:03.659Z,40.13
2018-02-19T05:03:34.482Z,41.37
2018-02-19T05:06:04.626Z,39.88
2018-02-19T05:08:35.482Z,42.17
2018-02-19T05:11:05.529Z,36.00
2018-02-19T05:13:36.057Z,36.08
2018-02-19T05:16:06.476Z,24.67
2018-02-19T05:18:36.553Z,24.20
2018-02-19T05:21:06.619Z,23.90
2018-02-19T05:23:36.988Z,22.70
2018-02-19T05:26:07.051Z,22.87
2018-02-19T05:28:37.608Z,23.38
2018-02-19T05:31:08.528Z,26.00
2018-02-19T05:33:38.662Z,24.95
2018-02-19T05:36:08.732Z,18.73
2018-02-19T05:38:39.416Z,19.77
2018-02-19T05:41:09.530Z,17.27
2018-02-19T05:43:40.058Z,15.27
2018-02-19T05:46:10.885Z,12.50
2018-02-19T05:48:41.161Z,15.13
2018-02-19T05:51:52.608Z,8.25
2018-02-19T05:54:23.330Z,8.70
2018-02-19T05:56:57.429Z,10.20
2018-02-19T05:59:30.405Z,13.57
2018-02-19T06:02:00.989Z,11.98
2018-02-19T06:08:04.672Z,10.15
2018-02-19T06:10:35.547Z,11.10
2018-02-19T06:13:07.467Z,12.30
2018-02-19T06:15:37.608Z,12.65
2018-02-19T06:18:08.144Z,9.80
2018-02-19T06:20:44.360Z,10.23
2018-02-19T06:23:16.463Z,10.00
2018-02-19T06:25:51.358Z,13.85
2018-02-19T06:28:27.612Z,12.20
2018-02-19T06:31:17.540Z,10.60
2018-02-19T06:34:09.292Z,14.60
2018-02-19T06:37:22.882Z,16.87
2018-02-19T06:40:01.918Z,14.23
2018-02-19T06:44:12.881Z,12.20
2018-02-19T06:50:14.164Z,21.10
2018-02-19T06:56:20.441Z,24.48
2018-02-19T06:58:51.550Z,23.48
2018-02-19T07:01:25.216Z,23.17
2018-02-19T07:03:56.106Z,14.80
2018-02-19T07:06:43.119Z,12.77
2018-02-19T07:09:14.488Z,13.85
2018-02-19T07:12:04.344Z,13.05
2018-02-19T07:14:37.350Z,12.50
2018-02-19T07:17:09.518Z,13.07
2018-02-19T07:19:44.193Z,9.05
2018-02-19T07:22:15.562Z,7.87
2018-02-19T07:24:45.806Z,9.85
2018-02-19T07:30:10.638Z,14.30
2018-02-19T07:33:23.083Z,11.47
2018-02-19T07:35:56.852Z,12.93
2018-02-19T07:38:54.654Z,12.03
2018-02-19T07:41:25.511Z,9.80
2018-02-19T07:43:57.490Z,17.45
2018-02-19T07:46:31.535Z,14.50
2018-02-19T07:49:03.318Z,11.75
2018-02-19T07:51:42.040Z,11.12
2018-02-19T07:54:22.539Z,7.90
2018-02-19T07:56:54.166Z,10.35
2018-02-19T07:59:26.337Z,9.77
2018-02-19T08:01:57.930Z,9.65
2018-02-19T08:04:29.203Z,13.87
2018-02-19T08:07:00.317Z,11.85
2018-02-19T08:09:32.637Z,10.97
2018-02-19T08:12:03.005Z,15.57
2018-02-19T08:14:34.620Z,13.50
2018-02-19T08:17:05.219Z,10.60
2018-02-19T08:19:35.736Z,16.87
2018-02-19T08:22:07.314Z,10.88
2018-02-19T08:24:47.695Z,13.80
2018-02-19T08:27:20.223Z,9.38
2018-02-19T08:29:51.627Z,18.42
2018-02-19T08:32:23.085Z,10.48
2018-02-19T08:34:55.115Z,12.75
2018-02-19T08:37:27.655Z,16.48
2018-02-19T08:39:58.319Z,10.63
2018-02-19T08:42:29.731Z,9.85
2018-02-19T08:45:00.430Z,8.65
2018-02-19T08:47:31.338Z,11.25
2018-02-19T08:50:01.794Z,10.10
2018-02-19T08:52:38.364Z,10.73
2018-02-19T08:55:09.117Z,11.85
2018-02-19T08:57:58.426Z,11.30
2018-02-19T09:00:55.365Z,13.55
2018-02-19T09:03:38.153Z,10.40
2018-02-19T09:06:32.264Z,10.88
2018-02-19T09:09:22.538Z,11.70
2018-02-19T09:11:53.304Z,12.73
2018-02-19T09:14:24.121Z,11.80
2018-02-19T09:17:02.630Z,16.15
2018-02-19T09:19:35.254Z,17.50
2018-02-19T09:22:06.218Z,18.87
2018-02-19T09:24:45.483Z,25.62
2018-02-19T09:27:17.920Z,24.30
2018-02-19T09:30:21.704Z,24.90
2018-02-19T09:33:01.027Z,23.92
2018-02-19T09:35:40.825Z,26.42
2018-02-19T09:38:33.811Z,21.90
2018-02-19T09:41:08.099Z,22.90
2018-02-19T09:43:40.751Z,29.20
2018-02-19T09:46:12.664Z,24.67
2018-02-19T09:48:43.241Z,21.80
2018-02-19T09:51:15.149Z,20.67
2018-02-19T09:53:47.804Z,19.92
2018-02-19T09:56:19.543Z,27.07
2018-02-19T09:58:50.441Z,22.85
2018-02-19T10:01:23.737Z,22.58
2018-02-19T10:03:55.609Z,23.90
2018-02-19T10:06:28.538Z,24.00
2018-02-19T10:09:00.122Z,22.30
2018-02-19T10:11:43.976Z,22.30
2018-02-19T10:14:15.050Z,24.40
2018-02-19T10:16:50.043Z,23.65
2018-02-19T10:19:21.606Z,24.20
2018-02-19T10:21:52.793Z,23.25
2018-02-19T10:24:26.052Z,22.15
2018-02-19T10:26:56.966Z,25.67
2018-02-19T10:29:54.368Z,21.85
2018-02-19T10:32:33.464Z,25.23
2018-02-19T10:35:08.643Z,27.50
2018-02-19T10:37:40.824Z,23.83
2018-02-19T10:40:13.585Z,22.87
2018-02-19T10:42:51.352Z,26.40
2018-02-19T10:45:21.971Z,27.42
2018-02-19T10:47:53.435Z,22.25
2018-02-19T10:50:25.609Z,23.27
2018-02-19T10:59:28.013Z,23.75
2018-02-19T11:01:59.665Z,22.50
2018-02-19T11:08:05.681Z,25.73
2018-02-19T11:10:36.074Z,22.85
2018-02-19T11:13:07.733Z,24.70
2018-02-19T12:50:04.870Z,28.38
2018-02-19T12:52:41.013Z,30.17
2018-02-19T12:55:35.885Z,30.67
2018-02-19T12:58:08.057Z,26.52
2018-02-19T13:00:38.685Z,27.47
2018-02-19T13:03:14.396Z,28.27
2018-02-19T13:05:48.375Z,30.43
2018-02-19T13:08:20.697Z,28.08
2018-02-19T13:10:51.185Z,27.67
2018-02-19T13:13:34.686Z,26.27
2018-02-19T13:16:08.889Z,29.27
2018-02-19T13:18:41.577Z,31.03
2018-02-19T13:21:18.963Z,29.30
2018-02-19T13:23:49.990Z,28.30
2018-02-19T13:26:21.227Z,32.10
2018-02-19T13:28:51.775Z,32.13
2018-02-19T13:31:33.266Z,27.95
2018-02-19T13:34:08.269Z,31.73
2018-02-19T13:36:40.951Z,30.12
2018-02-19T13:39:13.096Z,33.03
2018-02-19T13:41:44.753Z,31.42
2018-02-19T13:48:00.126Z,30.08
2018-02-19T13:50:32.432Z,31.50
2018-02-19T13:53:03.582Z,35.07
2018-02-19T13:55:35.099Z,29.85
2018-02-19T13:58:06.512Z,32.83
2018-02-19T14:00:37.755Z,31.80
2018-02-19T14:03:09.583Z,32.70
2018-02-19T14:05:43.689Z,31.70
2018-02-19T14:11:32.494Z,34.28
2018-02-19T14:14:04.748Z,31.77
2018-02-19T14:16:35.597Z,37.77
2018-02-19T14:19:06.268Z,30.98
2018-02-19T14:21:36.510Z,34.42
2018-02-19T14:24:07.123Z,34.15
2018-02-19T14:26:46.542Z,33.33
2018-02-19T14:29:58.426Z,31.40
2018-02-19T14:32:28.919Z,32.37
2018-02-19T14:35:06.500Z,33.22
2018-02-19T14:37:38.188Z,35.53
2018-02-19T14:40:11.919Z,34.60
2018-02-19T14:42:46.458Z,32.83
2018-02-19T14:45:17.473Z,35.75
2018-02-19T14:47:53.836Z,35.05
2018-02-19T14:53:53.903Z,36.17
2018-02-19T14:56:53.375Z,34.15
2018-02-19T14:59:41.462Z,36.60
2018-02-19T15:02:12.348Z,35.08
2018-02-19T15:04:42.651Z,36.70
2018-02-19T15:07:18.965Z,32.85
2018-02-19T15:09:49.416Z,34.67
2018-02-19T15:12:26.053Z,31.48
2018-02-19T15:14:59.722Z,33.58
2018-02-19T15:17:33.413Z,35.08
2018-02-19T15:20:26.580Z,33.25
2018-02-19T15:22:59.094Z,35.53
2018-02-19T15:25:31.303Z,36.67
2018-02-19T15:28:02.524Z,34.23
2018-02-19T15:30:33.953Z,33.95
2018-02-19T15:33:04.664Z,32.28
2018-02-19T15:35:56.819Z,34.47
2018-02-19T15:38:27.908Z,35.33
2018-02-19T15:41:00.285Z,34.92
2018-02-19T15:43:33.278Z,39.00
2018-02-19T15:46:03.678Z,37.05
2018-02-19T15:49:11.326Z,35.78
2018-02-19T15:51:42.620Z,34.42
2018-02-19T15:54:14.631Z,35.72
2018-02-19T15:56:45.539Z,37.73
2018-02-19T15:59:17.678Z,37.75
2018-02-19T16:01:50.982Z,36.45
2018-02-19T16:04:25.792Z,37.43
2018-02-19T16:07:02.297Z,39.42
2018-02-19T16:09:33.318Z,36.13
2018-02-19T16:12:05.047Z,35.47
2018-02-19T16:14:37.417Z,37.45
2018-02-19T16:17:11.563Z,38.60
2018-02-19T16:19:43.059Z,38.92
2018-02-19T16:22:14.736Z,43.17
2018-02-19T16:24:48.239Z,39.00
2018-02-19T16:27:23.003Z,38.38
2018-02-19T16:30:23.639Z,38.10
2018-02-19T16:33:09.625Z,36.20
2018-02-19T16:35:49.901Z,38.53
2018-02-19T16:38:21.230Z,37.58
2018-02-19T16:41:29.558Z,38.72
2018-02-19T16:44:02.529Z,39.13
2018-02-19T16:46:33.686Z,40.60
2018-02-19T16:49:06.158Z,40.28
2018-02-19T16:51:38.475Z,34.53
2018-02-19T16:54:14.019Z,39.03
2018-02-19T16:56:46.731Z,36.60
2018-02-19T16:59:17.850Z,42.10
2018-02-19T17:01:50.806Z,42.50
2018-02-19T17:04:22.754Z,42.42
2018-02-19T17:10:07.801Z,44.35
2018-02-19T17:12:40.657Z,41.05
2018-02-19T17:15:11.377Z,43.42
2018-02-19T17:17:41.781Z,39.58
2018-02-19T17:20:12.859Z,44.85
2018-02-19T17:22:43.795Z,42.95
2018-02-19T17:25:16.053Z,40.70
2018-02-19T17:27:46.593Z,45.40
2018-02-19T17:30:17.260Z,44.20
2018-02-19T17:32:49.628Z,43.25
2018-02-19T17:35:21.164Z,42.87
2018-02-19T17:37:57.308Z,43.80
2018-02-19T17:40:28.884Z,44.65
2018-02-19T17:42:59.022Z,43.40
2018-02-19T17:45:31.371Z,47.08
2018-02-19T17:48:01.728Z,45.25
2018-02-19T17:50:34.122Z,45.22
2018-02-19T17:53:06.192Z,48.42
2018-02-19T17:55:37.649Z,47.90
2018-02-19T17:58:07.917Z,45.05
2018-02-19T18:00:38.943Z,50.17
2018-02-19T18:03:10.474Z,58.63
2018-02-19T18:06:21.398Z,42.70
2018-02-19T18:08:51.805Z,49.53
2018-02-19T18:11:22.992Z,47.75
2018-02-19T18:13:57.149Z,43.22
2018-02-19T18:16:27.679Z,49.20
2018-02-19T18:18:58.868Z,44.73
2018-02-19T18:21:30.377Z,43.28
2018-02-19T18:24:04.222Z,42.50
2018-02-19T18:26:35.813Z,41.53
2018-02-19T19:12:48.942Z,51.10
2018-02-19T19:15:19.799Z,48.47
2018-02-19T19:17:51.025Z,49.92
2018-02-19T19:20:22.975Z,45.63
2018-02-19T19:22:53.156Z,44.83
2018-02-19T19:25:27.512Z,50.38
2018-02-19T19:27:58.982Z,47.60
2018-02-19T19:30:30.153Z,47.17
2018-02-19T19:33:00.713Z,48.17
2018-02-19T19:35:38.473Z,48.53
2018-02-19T19:38:10.180Z,49.22
2018-02-19T19:40:40.372Z,48.73
2018-02-19T19:43:13.779Z,46.65
2018-02-19T19:45:50.729Z,45.65
2018-02-19T19:48:22.718Z,49.22
2018-02-19T19:50:53.459Z,54.10
2018-02-19T19:53:29.156Z,57.72
2018-02-19T19:56:01.078Z,52.40
2018-02-19T19:58:31.515Z,56.58
2018-02-19T20:01:06.178Z,55.53
2018-02-19T20:03:41.260Z,52.92
2018-02-19T20:06:11.685Z,55.33
2018-02-19T20:08:42.314Z,50.78
2018-02-19T20:11:12.836Z,54.75
2018-02-19T20:13:43.378Z,55.08
2018-02-19T20:16:38.117Z,57.13
2018-02-19T20:19:09.900Z,50.10
2018-02-19T20:21:40.708Z,48.38
2018-02-19T20:24:11.201Z,54.78
2018-02-19T20:26:42.541Z,58.33
2018-02-19T20:29:13.586Z,53.80
2018-02-19T20:31:43.995Z,47.75
2018-02-19T20:34:14.181Z,55.50
2018-02-19T20:36:46.037Z,50.83
2018-02-19T20:39:17.491Z,54.80
2018-02-19T20:41:48.944Z,49.65
2018-02-19T20:44:20.843Z,53.35
2018-02-19T20:46:52.107Z,51.95
2018-02-19T20:49:23.570Z,58.75
2018-02-19T20:51:54.517Z,53.25
2018-02-19T20:54:25.994Z,60.05
2018-02-19T20:56:56.596Z,55.10
2018-02-19T20:59:27.128Z,58.00
2018-02-19T21:01:57.475Z,56.80
2018-02-19T21:04:27.974Z,51.47
2018-02-19T21:06:58.096Z,48.10
2018-02-19T21:09:29.277Z,48.70
2018-02-19T21:12:00.045Z,52.35
2018-02-19T21:14:31.844Z,52.50
2018-02-19T21:17:02.259Z,49.42
2018-02-19T21:19:33.714Z,50.42
2018-02-19T21:22:04.558Z,53.55
2018-02-19T21:24:38.622Z,50.28
2018-02-19T21:27:09.415Z,51.70
2018-02-19T21:29:41.257Z,57.43
2018-02-19T21:32:13.419Z,55.90
2018-02-19T21:34:45.715Z,50.33
2018-02-19T21:37:16.776Z,54.83
2018-02-19T21:39:47.415Z,48.97
2018-02-19T21:42:17.954Z,51.97
2018-02-19T21:44:49.154Z,50.80
2018-02-19T21:47:19.989Z,50.53
2018-02-19T21:49:50.483Z,55.92
2018-02-19T21:52:20.608Z,53.63
2018-02-19T21:54:51.363Z,53.55
2018-02-19T21:57:21.479Z,54.87
2018-02-19T21:59:52.173Z,70.15
2018-02-19T22:02:22.425Z,70.77
2018-02-19T22:04:52.892Z,60.63
2018-02-19T22:07:23.452Z,63.53
2018-02-19T22:10:02.039Z,62.45
2018-02-19T22:12:33.733Z,60.95
2018-02-19T22:15:03.974Z,64.85
2018-02-19T22:17:35.105Z,59.47
2018-02-19T22:20:05.672Z,62.45
2018-02-19T22:22:36.471Z,57.50
2018-02-19T22:25:12.250Z,54.05
2018-02-19T22:27:55.569Z,61.63
2018-02-19T22:30:31.087Z,55.12
2018-02-19T22:33:04.717Z,62.85
2018-02-19T22:35:38.837Z,57.63
2018-02-19T22:38:14.693Z,53.58
2018-02-19T22:40:48.733Z,55.37
2018-02-19T22:43:21.852Z,54.30
2018-02-19T22:45:54.956Z,54.25
2018-02-19T22:48:27.529Z,53.13
2018-02-19T22:50:58.664Z,52.80
2018-02-19T22:53:29.408Z,55.38
2018-02-19T22:56:00.127Z,53.47
2018-02-19T22:58:30.788Z,61.20
2018-02-19T23:01:01.396Z,62.30
2018-02-19T23:03:34.148Z,56.55
2018-02-19T23:06:04.583Z,50.70
2018-02-19T23:08:34.946Z,52.17
2018-02-19T23:11:06.069Z,56.40
2018-02-19T23:13:37.121Z,62.85
2018-02-19T23:16:19.592Z,54.05
2018-02-19T23:18:51.246Z,50.20
2018-02-19T23:21:22.840Z,56.92
2018-02-19T23:23:53.299Z,51.27
2018-02-19T23:26:25.754Z,54.13
2018-02-19T23:28:56.205Z,51.77
2018-02-19T23:31:27.468Z,50.90
2018-02-19T23:33:58.116Z,54.70
2018-02-19T23:36:29.439Z,52.40
2018-02-19T23:39:00.513Z,56.05
2018-02-19T23:41:31.236Z,53.72
2018-02-19T23:44:01.421Z,52.53
2018-02-19T23:46:31.482Z,55.10
2018-02-19T23:49:01.534Z,55.30
2018-02-19T23:51:31.742Z,58.72
2018-02-19T23:54:02.150Z,56.92
2018-02-19T23:56:32.327Z,58.30
2018-02-19T23:59:02.755Z,54.30
